Latest Coastal Weather Observations for Browse Island

IDD60701

Issued at 7:15 am CST Tuesday 2 September 2014 (issued every 10 minutes, with the page automatically refreshed every 10 minutes)

About coastal observations | Map of coastal stations | Coastal observations for NT | Marine services | Other Formats
Station Details ID: 200784 Name: BROWSE ISLAND Lat: -14.11 Lon: 123.55 Height: 3.7 m
Data from the previous 72 hours. | See also: Recent months for locations in Northern Territory
Date/Time
CST
Temp

°C
Wind Pressure Rain
since 9am
mm
Weather Cloud Vis
km
Sea
Height
m
Swell
Dir
 
Speed
knots
Gust
knots
hPa Trend Height
m
Period
s
Dir
02/07:00am 25.0 SE 5 6 1014.6 - - - - - - - - -
02/06:30am 25.0 E 4 5 1014.3 - - - - - - - - -
02/06:00am 24.9 E 4 4 1014.1 - - - - - - - - -
02/05:30am 24.8 E 4 4 1014.0 - - - - - - - - -
02/05:00am 24.8 E 4 4 1014.0 - - - - - - - - -
02/04:30am 25.2 ESE 4 5 1014.0 - - - - - - - - -
02/04:00am 25.2 ESE 3 4 1014.0 - - - - - - - - -
02/03:30am 25.2 ESE 4 4 1013.8 - - - - - - - - -
02/03:00am 25.3 SE 4 4 1013.9 - - - - - - - - -
02/02:30am 25.4 SE 4 5 1014.0 - - - - - - - - -
02/02:00am 25.5 SE 5 6 1014.2 - - - - - - - - -
02/01:30am 25.6 SE 4 5 1014.4 - - - - - - - - -
02/01:00am 25.8 SSE 7 8 1014.7 - - - - - - - - -
02/12:30am 26.0 S 8 9 1014.8 - - - - - - - - -
02/12:00am 25.8 S 8 8 1014.7 - - - - - - - - -
 
Date/Time
CST
Temp

°C
Wind Pressure Rain
since 9am
mm
Weather Cloud Vis
km
Sea
Height
m
Swell
Dir
 
Speed
knots
Gust
knots
hPa Trend Height
m
Period
s
Dir
01/11:30pm 25.9 S 8 9 1014.6 - - - - - - - - -
01/11:00pm 25.7 S 9 10 1014.6 - - - - - - - - -
01/10:30pm 26.0 S 10 11 1014.5 - - - - - - - - -
01/10:00pm 26.0 S 10 11 1014.3 - - - - - - - - -
01/09:30pm 25.9 S 10 11 1014.0 - - - - - - - - -
01/09:00pm 25.9 SSW 11 12 1013.7 - - - - - - - - -
01/08:30pm 25.9 SSW 10 11 1013.3 - - - - - - - - -
01/08:00pm 26.0 SSW 9 10 1013.1 - - - - - - - - -
01/07:30pm 26.0 SSW 8 9 1013.0 - - - - - - - - -
01/07:00pm 26.0 S 9 11 1013.0 - - - - - - - - -
01/06:30pm 26.2 S 9 11 1012.9 - - - - - - - - -
01/06:00pm 26.2 S 10 11 1012.9 - - - - - - - - -
01/05:30pm 26.5 SSE 10 11 1012.8 - - - - - - - - -
01/05:00pm 26.6 SSE 9 11 1012.6 - - - - - - - - -
01/04:30pm 27.0 SSE 9 10 1012.6 - - - - - - - - -
01/04:00pm 27.0 SSE 8 9 1012.6 - - - - - - - - -
01/03:30pm 26.6 SSE 8 9 1012.8 - - - - - - - - -
01/03:00pm 26.9 SSE 9 11 1012.9 - - - - - - - - -
01/02:30pm 26.4 SSE 8 10 1013.2 - - - - - - - - -
01/02:00pm 27.4 SSE 8 10 1013.7 - - - - - - - - -
01/01:30pm 26.5 SSE 8 10 1014.0 - - - - - - - - -
01/01:00pm 27.3 SSE 8 10 1014.4 - - - - - - - - -
01/12:30pm 26.8 SSE 8 9 1014.7 - - - - - - - - -
01/12:00pm 27.1 SE 7 9 1015.2 - - - - - - - - -
01/11:30am 26.6 SE 7 9 1015.4 - - - - - - - - -
01/11:00am 26.0 SE 7 8 1015.5 - - - - - - - - -
01/10:30am 25.6 SSE 7 9 1015.7 - - - - - - - - -
01/10:00am 25.5 SE 7 9 1015.7 - - - - - - - - -
01/09:30am 26.0 SE 6 8 1015.5 - - - - - - - - -
01/09:00am 25.4 SE 5 6 1015.2 - - - - - - - - -
01/08:30am 25.2 SE 4 5 1014.9 - - - - - - - - -
01/08:00am 24.9 CALM 0 0 1014.7 - - - - - - - - -
01/07:30am 24.6 CALM 0 0 1014.5 - - - - - - - - -
01/07:00am 24.6 E 3 4 1014.3 - - - - - - - - -
01/06:30am 24.8 SE 4 5 1014.0 - - - - - - - - -
01/06:00am 24.8 ESE 4 4 1013.8 - - - - - - - - -
01/05:30am 24.9 ESE 3 4 1013.6 - - - - - - - - -
01/05:00am 25.0 SE 4 4 1013.5 - - - - - - - - -
01/04:30am 24.9 SSE 5 5 1013.3 - - - - - - - - -
01/04:00am 25.2 SSE 4 5 1013.2 - - - - - - - - -
01/03:30am 25.3 SSE 4 5 1013.2 - - - - - - - - -
01/03:00am 25.3 SSE 4 5 1013.2 - - - - - - - - -
01/02:30am 25.3 SE 3 4 1013.0 - - - - - - - - -
01/02:00am 25.3 ESE 2 3 1013.1 - - - - - - - - -
01/01:30am 25.5 SSE 4 5 1013.3 - - - - - - - - -
01/01:00am 25.6 S 5 6 1013.4 - - - - - - - - -
01/12:30am 25.5 S 5 6 1013.5 - - - - - - - - -
01/12:00am 25.6 S 5 6 1013.5 - - - - - - - - -
 
Date/Time
CST
Temp

°C
Wind Pressure Rain
since 9am
mm
Weather Cloud Vis
km
Sea
Height
m
Swell
Dir
 
Speed
knots
Gust
knots
hPa Trend Height
m
Period
s
Dir
31/11:30pm 25.6 S 5 6 1013.4 - - - - - - - - -
31/11:00pm 25.6 S 3 4 1013.4 - - - - - - - - -
31/10:30pm 25.6 S 3 4 1013.4 - - - - - - - - -
31/10:00pm 25.6 SSW 6 7 1013.1 - - - - - - - - -
31/09:30pm 25.6 SW 5 6 1013.0 - - - - - - - - -
31/09:00pm 25.7 SW 5 6 1012.9 - - - - - - - - -
31/08:30pm 25.8 SSW 5 5 1012.6 - - - - - - - - -
31/08:00pm 25.7 S 5 6 1012.5 - - - - - - - - -
31/07:30pm 25.9 S 5 6 1012.4 - - - - - - - - -
31/07:00pm 25.9 S 7 8 1012.3 - - - - - - - - -
31/06:30pm 26.1 SSE 8 9 1012.1 - - - - - - - - -
31/06:00pm 26.2 SSE 8 9 1012.1 - - - - - - - - -
31/05:30pm 26.4 SSE 8 10 1012.0 - - - - - - - - -
31/05:00pm 26.8 SSE 8 10 1012.0 - - - - - - - - -
31/04:30pm 26.8 SSE 9 11 1012.1 - - - - - - - - -
31/04:00pm 27.4 SE 9 12 1012.4 - - - - - - - - -
31/03:30pm 27.1 SE 9 11 1012.5 - - - - - - - - -
31/03:00pm 26.7 SE 9 11 1012.7 - - - - - - - - -
31/02:30pm 26.8 SSE 9 11 1013.0 - - - - - - - - -
31/02:00pm 26.4 SSE 10 11 1013.3 - - - - - - - - -
31/01:30pm 26.3 S 9 11 1013.6 - - - - - - - - -
31/01:00pm 26.2 S 8 9 1013.9 - - - - - - - - -
31/12:30pm 26.0 S 9 10 1014.5 - - - - - - - - -
31/12:00pm 26.1 SSE 9 10 1014.9 - - - - - - - - -
31/11:30am 26.1 SSE 9 10 1015.2 - - - - - - - - -
31/11:00am 26.4 SSE 8 10 1015.3 - - - - - - - - -
31/10:30am 26.4 SSE 8 10 1015.4 - - - - - - - - -
31/10:00am 25.7 SSE 8 9 1015.3 - - - - - - - - -
31/09:30am 25.5 SSE 7 9 1015.1 - - - - - - - - -
31/09:00am 25.3 SSE 8 9 1014.8 - - - - - - - - -
31/08:30am 25.3 SE 7 7 1014.5 - - - - - - - - -
31/08:00am 25.2 SE 6 8 1014.4 - - - - - - - - -
31/07:30am 25.0 SE 6 7 1014.1 - - - - - - - - -
31/07:00am 25.0 SE 7 8 1013.9 - - - - - - - - -
31/06:30am 24.8 SSE 7 8 1013.6 - - - - - - - - -
31/06:00am 25.2 SE 7 8 1013.4 - - - - - - - - -
31/05:30am 25.3 SE 6 7 1013.4 - - - - - - - - -
31/05:00am 25.3 SE 6 7 1013.3 - - - - - - - - -
31/04:30am 25.3 ESE 5 7 1013.3 - - - - - - - - -
31/04:00am 25.1 ESE 6 7 1013.2 - - - - - - - - -
31/03:30am 25.1 E 6 7 1013.2 - - - - - - - - -
31/03:00am 25.0 ESE 5 6 1013.4 - - - - - - - - -
31/02:30am 25.2 SE 5 7 1013.5 - - - - - - - - -
31/02:00am 25.3 SE 6 7 1013.7 - - - - - - - - -
31/01:30am 25.3 SSE 6 8 1013.9 - - - - - - - - -
31/01:00am 25.2 SSE 6 7 1013.8 - - - - - - - - -
31/12:30am 25.5 S 8 9 1013.8 - - - - - - - - -
31/12:00am 25.5 S 7 9 1013.8 - - - - - - - - -
 
Date/Time
CST
Temp

°C
Wind Pressure Rain
since 9am
mm
Weather Cloud Vis
km
Sea
Height
m
Swell
Dir
 
Speed
knots
Gust
knots
hPa Trend Height
m
Period
s
Dir
30/11:30pm 25.7 S 8 9 1013.8 - - - - - - - - -
30/11:00pm 25.4 S 8 9 1013.9 - - - - - - - - -
30/10:30pm 25.6 SSW 9 10 1014.0 - - - - - - - - -
30/10:00pm 25.4 SSW 9 9 1014.0 - - - - - - - - -
30/09:30pm 25.4 SSW 8 9 1013.8 - - - - - - - - -
30/09:00pm 25.5 SSW 7 9 1013.7 - - - - - - - - -
30/08:30pm 25.8 S 8 9 1013.4 - - - - - - - - -
30/08:00pm 25.8 S 8 9 1013.0 - - - - - - - - -
30/07:30pm 25.8 S 7 9 1012.9 - - - - - - - - -
30/07:00pm 25.9 S 9 10 1012.9 - - - - - - - - -
30/06:30pm 26.0 S 10 11 1012.8 - - - - - - - - -
30/06:00pm 26.0 S 10 12 1012.7 - - - - - - - - -
30/05:30pm 26.3 S 11 13 1012.6 - - - - - - - - -
30/05:00pm 26.1 S 11 13 1012.4 - - - - - - - - -
30/04:30pm 25.8 S 10 12 1012.4 - - - - - - - - -
30/04:00pm 25.8 SSE 9 11 1012.6 - - - - - - - - -
30/03:30pm 26.1 SSE 8 10 1012.8 - - - - - - - - -
30/03:00pm 26.7 SSE 8 9 1013.2 - - - - - - - - -
30/02:30pm 27.3 SSE 7 9 1013.5 - - - - - - - - -
30/02:00pm 26.8 SE 7 9 1014.0 - - - - - - - - -
30/01:30pm 27.1 SE 8 9 1014.3 - - - - - - - - -
30/01:00pm 26.9 ESE 8 10 1014.7 - - - - - - - - -
30/12:30pm 26.6 ESE 7 9 1015.1 - - - - - - - - -
30/12:00pm 26.6 ESE 8 10 1015.5 - - - - - - - - -
30/11:30am 26.8 ESE 8 10 1015.9 - - - - - - - - -
30/11:00am 27.3 ESE 8 10 1016.1 - - - - - - - - -
30/10:30am 26.9 E 9 11 1016.2 - - - - - - - - -
30/10:00am 26.7 E 8 10 1016.1 - - - - - - - - -
30/09:30am 26.0 E 9 12 1016.1 - - - - - - - - -
30/09:00am 25.9 E 9 11 1016.0 - - - - - - - - -

Other Formats:

Comma delimited format used in spreadsheet applications
http://www.bom.gov.au/fwo/IDD60701/IDD60701.94103.axf

JavaScript Object Notation format (JSON) in row-major order
http://www.bom.gov.au/fwo/IDD60701/IDD60701.94103.json